createdAt,value
2019-05-28T00:01:26.727Z,6.93
2019-05-28T00:04:04.376Z,7.27
2019-05-28T00:06:34.492Z,6.80
2019-05-28T00:09:16.945Z,6.70
2019-05-28T00:11:46.499Z,6.97
2019-05-28T00:14:15.738Z,6.73
2019-05-28T00:16:44.706Z,6.67
2019-05-28T00:19:21.955Z,7.13
2019-05-28T00:21:52.097Z,7.73
2019-05-28T00:24:27.567Z,6.70
2019-05-28T00:26:57.239Z,6.93
2019-05-28T00:29:26.484Z,6.80
2019-05-28T00:31:55.711Z,6.47
2019-05-28T00:34:24.694Z,7.20
2019-05-28T00:36:53.574Z,7.07
2019-05-28T00:39:29.854Z,7.60
2019-05-28T00:41:58.774Z,7.20
2019-05-28T00:44:46.631Z,6.53
2019-05-28T00:47:16.184Z,6.77
2019-05-28T00:49:45.082Z,7.40
2019-05-28T00:52:22.447Z,7.03
2019-05-28T00:54:51.902Z,7.17
2019-05-28T00:57:29.300Z,7.60
2019-05-28T00:59:59.559Z,6.77
2019-05-28T01:02:29.127Z,7.20
2019-05-28T01:04:58.488Z,6.17
2019-05-28T01:07:28.291Z,5.67
2019-05-28T01:09:57.890Z,5.43
2019-05-28T01:12:35.351Z,4.90
2019-05-28T01:15:04.334Z,5.10
2019-05-28T01:17:33.915Z,5.93
2019-05-28T01:20:05.888Z,5.23
2019-05-28T01:22:35.079Z,5.87
2019-05-28T01:25:05.349Z,5.37
2019-05-28T01:27:34.342Z,5.70
2019-05-28T01:30:03.427Z,5.43
2019-05-28T01:32:40.691Z,5.93
2019-05-28T01:35:10.247Z,5.80
2019-05-28T01:37:39.794Z,5.70
2019-05-28T01:40:09.318Z,5.17
2019-05-28T01:42:46.396Z,5.00
2019-05-28T01:45:16.286Z,6.30
2019-05-28T01:47:45.819Z,5.93
2019-05-28T01:50:26.734Z,5.50
2019-05-28T01:52:56.286Z,5.63
2019-05-28T01:55:25.454Z,5.80
2019-05-28T01:57:54.442Z,6.03
2019-05-28T02:00:23.445Z,6.00
2019-05-28T02:02:53.362Z,5.73
2019-05-28T02:05:22.807Z,5.40
2019-05-28T02:07:59.968Z,5.50
2019-05-28T02:10:29.628Z,5.30
2019-05-28T02:12:59.475Z,5.77
2019-05-28T02:15:29.130Z,6.07
2019-05-28T02:17:58.785Z,4.70
2019-05-28T02:20:35.999Z,5.20
2019-05-28T02:23:05.015Z,5.40
2019-05-28T02:25:34.578Z,5.03
2019-05-28T02:28:13.030Z,4.70
2019-05-28T02:30:42.015Z,4.87
2019-05-28T02:33:11.579Z,4.23
2019-05-28T02:35:41.130Z,5.03
2019-05-28T02:38:10.415Z,4.43
2019-05-28T02:40:39.318Z,4.90
2019-05-28T02:43:15.680Z,4.73
2019-05-28T02:45:45.682Z,4.20
2019-05-28T02:48:14.994Z,4.40
2019-05-28T02:51:04.082Z,4.03
2019-05-28T02:53:33.274Z,4.20
2019-05-28T02:56:04.662Z,3.80
2019-05-28T02:58:36.401Z,3.90
2019-05-28T03:01:08.299Z,3.80
2019-05-28T03:03:37.938Z,3.80
2019-05-28T03:06:08.852Z,4.00
2019-05-28T03:08:37.847Z,4.10
2019-05-28T03:11:15.014Z,4.33
2019-05-28T03:13:44.566Z,3.73
2019-05-28T03:16:15.116Z,3.93
2019-05-28T03:18:44.107Z,4.23
2019-05-28T03:21:13.110Z,3.23
2019-05-28T03:23:44.097Z,3.33
2019-05-28T03:26:23.565Z,3.60
2019-05-28T03:28:51.996Z,3.87
2019-05-28T03:31:21.640Z,3.43
2019-05-28T03:33:58.790Z,3.87
2019-05-28T03:36:31.567Z,3.17
2019-05-28T03:39:01.824Z,3.40
2019-05-28T03:41:31.766Z,3.73
2019-05-28T03:44:08.656Z,3.20
2019-05-28T03:46:37.642Z,3.93
2019-05-28T03:49:10.268Z,4.20
2019-05-28T03:51:39.827Z,3.40
2019-05-28T03:54:17.785Z,3.73
2019-05-28T03:56:47.029Z,4.00
2019-05-28T03:59:16.239Z,3.40
2019-05-28T04:01:45.874Z,4.07
2019-05-28T04:04:15.419Z,3.60
2019-05-28T04:06:44.983Z,4.40
2019-05-28T04:09:20.870Z,3.30
2019-05-28T04:11:49.781Z,3.33
2019-05-28T04:14:19.345Z,2.80
2019-05-28T04:16:49.279Z,3.50
2019-05-28T04:19:18.184Z,3.60
2019-05-28T04:21:57.536Z,3.57
2019-05-28T04:24:18.045Z,3.60
2019-05-28T04:26:47.209Z,3.53
2019-05-28T04:29:16.792Z,3.57
2019-05-28T04:31:52.979Z,3.50
2019-05-28T04:34:22.808Z,4.20
2019-05-28T04:36:52.354Z,4.00
2019-05-28T04:39:22.051Z,3.53
2019-05-28T04:41:51.596Z,4.03
2019-05-28T04:44:20.853Z,3.47
2019-05-28T04:46:49.825Z,4.17
2019-05-28T04:49:18.718Z,3.33
2019-05-28T04:51:56.368Z,3.83
2019-05-28T04:54:25.371Z,4.47
2019-05-28T04:56:54.526Z,3.47
2019-05-28T04:59:24.089Z,3.77
2019-05-28T05:01:53.761Z,3.63
2019-05-28T05:04:23.624Z,3.27
2019-05-28T05:06:53.175Z,3.63
2019-05-28T05:09:29.442Z,3.63
2019-05-28T05:11:59.822Z,4.20
2019-05-28T05:14:29.626Z,4.23
2019-05-28T05:17:01.323Z,4.37
2019-05-28T05:19:30.195Z,4.87
2019-05-28T05:21:59.743Z,4.43
2019-05-28T05:24:29.413Z,4.30
2019-05-28T05:26:58.978Z,4.37
2019-05-28T05:29:28.214Z,4.33
2019-05-28T05:31:57.495Z,6.27
2019-05-28T05:34:26.383Z,4.73
2019-05-28T05:37:04.405Z,5.60
2019-05-28T05:39:35.027Z,5.90
2019-05-28T05:42:05.015Z,5.20
2019-05-28T05:44:34.226Z,5.50
2019-05-28T05:47:04.265Z,5.20
2019-05-28T05:49:33.970Z,5.67
2019-05-28T05:52:04.643Z,5.30
2019-05-28T05:54:41.878Z,5.30
2019-05-28T05:57:10.763Z,6.40
2019-05-28T05:59:48.733Z,5.30
2019-05-28T06:02:19.000Z,6.23
2019-05-28T06:04:47.837Z,5.20
2019-05-28T06:07:17.500Z,7.10
2019-05-28T06:09:46.751Z,6.30
2019-05-28T06:12:16.326Z,6.17
2019-05-28T06:14:46.058Z,5.40
2019-05-28T06:17:14.948Z,5.87
2019-05-28T06:19:43.837Z,6.00
2019-05-28T06:22:13.511Z,5.63
2019-05-28T06:24:43.092Z,5.77
2019-05-28T06:27:12.249Z,6.47
2019-05-28T06:29:41.929Z,5.33
2019-05-28T06:32:11.470Z,5.47
2019-05-28T06:34:41.123Z,5.20
2019-05-28T06:37:10.913Z,5.10
2019-05-28T06:39:39.799Z,4.90
2019-05-28T06:42:09.398Z,4.73
2019-05-28T06:44:39.053Z,4.17
2019-05-28T06:47:08.614Z,4.47
2019-05-28T06:49:44.567Z,5.73
2019-05-28T06:52:14.171Z,5.90
2019-05-28T06:54:43.735Z,5.47
2019-05-28T06:57:22.250Z,5.83
2019-05-28T06:59:46.410Z,6.07
2019-05-28T07:02:16.618Z,5.53
2019-05-28T07:04:45.519Z,5.60
2019-05-28T07:07:15.224Z,5.03
2019-05-28T07:09:44.182Z,5.37
2019-05-28T07:12:13.755Z,5.30
2019-05-28T07:14:42.694Z,5.27
2019-05-28T07:17:12.294Z,4.70
2019-05-28T07:19:41.867Z,5.47
2019-05-28T07:22:10.863Z,4.93
2019-05-28T07:24:40.523Z,5.53
2019-05-28T07:27:10.092Z,5.60
2019-05-28T07:29:40.036Z,5.33
2019-05-28T07:32:08.919Z,5.37
2019-05-28T07:34:38.201Z,5.53
2019-05-28T07:37:08.222Z,5.77
2019-05-28T07:39:37.148Z,5.40
2019-05-28T07:42:06.495Z,4.73
2019-05-28T07:44:36.132Z,5.03
2019-05-28T07:47:11.505Z,4.97
2019-05-28T07:49:41.912Z,5.10
2019-05-28T07:52:13.377Z,5.33
2019-05-28T07:54:43.279Z,5.17
2019-05-28T07:57:12.883Z,5.90
2019-05-28T07:59:42.077Z,5.13
2019-05-28T08:02:11.669Z,6.53
2019-05-28T08:07:27.326Z,6.27
2019-05-28T08:09:57.146Z,6.03
2019-05-28T08:12:26.033Z,5.47
2019-05-28T08:14:56.074Z,5.53
2019-05-28T08:17:25.653Z,4.70
2019-05-28T08:19:54.837Z,4.43
2019-05-28T08:22:38.549Z,5.13
2019-05-28T08:24:55.073Z,5.20
2019-05-28T08:27:24.161Z,6.27
2019-05-28T08:29:56.435Z,6.73
2019-05-28T08:32:26.016Z,5.67
2019-05-28T08:35:04.853Z,5.97
2019-05-28T08:37:26.208Z,6.53
2019-05-28T08:40:05.937Z,5.40
2019-05-28T08:42:35.401Z,5.00
2019-05-28T08:45:04.699Z,5.67
2019-05-28T08:47:40.854Z,4.70
2019-05-28T08:50:09.942Z,5.73
2019-05-28T08:52:38.868Z,5.37
2019-05-28T08:55:09.469Z,5.73
2019-05-28T08:57:48.183Z,5.40
2019-05-28T09:00:38.159Z,4.30
2019-05-28T09:03:08.004Z,4.50
2019-05-28T09:05:37.578Z,4.07
2019-05-28T09:08:37.871Z,5.10
2019-05-28T09:10:59.678Z,5.07
2019-05-28T09:13:29.344Z,5.03
2019-05-28T09:15:58.932Z,4.80
2019-05-28T09:25:06.569Z,5.07
2019-05-28T09:27:36.127Z,4.40
2019-05-28T09:30:05.714Z,4.53
2019-05-28T09:32:35.923Z,4.87
2019-05-28T09:35:04.931Z,4.37
2019-05-28T09:37:33.826Z,5.30
2019-05-28T09:40:06.159Z,5.03
2019-05-28T09:42:38.010Z,4.43
2019-05-28T09:45:21.771Z,4.13
2019-05-28T09:47:40.589Z,3.77
2019-05-28T09:50:29.978Z,1.90
2019-05-28T09:52:54.549Z,2.17
2019-05-28T09:55:18.280Z,1.17
2019-05-28T09:57:48.222Z,1.10
2019-05-28T10:00:19.365Z,1.37
2019-05-28T10:02:48.933Z,1.30
2019-05-28T10:05:19.379Z,1.40
2019-05-28T10:07:49.062Z,1.40
2019-05-28T10:10:19.668Z,1.30
2019-05-28T10:12:49.004Z,1.23
2019-05-28T10:15:18.976Z,0.93
2019-05-28T10:18:06.458Z,1.40
2019-05-28T10:20:38.134Z,1.53
2019-05-28T10:23:07.332Z,1.73
2019-05-28T10:25:36.223Z,2.33
2019-05-28T10:28:05.996Z,1.50
2019-05-28T10:30:35.357Z,1.47
2019-05-28T10:33:04.498Z,1.70
2019-05-28T10:35:34.180Z,1.20
2019-05-28T10:38:14.828Z,0.80
2019-05-28T10:40:35.998Z,0.90
2019-05-28T10:43:09.478Z,0.73
2019-05-28T10:45:36.703Z,0.97
2019-05-28T10:48:06.367Z,0.97
2019-05-28T10:50:35.332Z,0.97
2019-05-28T10:53:04.672Z,0.87
2019-05-28T10:55:37.100Z,0.60
2019-05-28T10:58:07.380Z,1.13
2019-05-28T11:00:36.991Z,0.80
2019-05-28T11:03:09.466Z,0.60
2019-05-28T11:05:39.201Z,0.90
2019-05-28T11:08:08.763Z,0.97
2019-05-28T11:10:38.028Z,0.60
2019-05-28T11:13:07.766Z,0.80
2019-05-28T11:15:36.698Z,1.00
2019-05-28T11:18:06.407Z,0.70
2019-05-28T11:20:35.381Z,0.80
2019-05-28T11:23:05.832Z,0.60
2019-05-28T11:25:35.611Z,0.67
2019-05-28T11:28:07.285Z,1.30
2019-05-28T11:30:36.992Z,1.30
2019-05-28T11:33:07.147Z,1.83
2019-05-28T11:35:36.172Z,1.67
2019-05-28T11:38:08.458Z,1.37
2019-05-28T11:40:47.386Z,1.50
2019-05-28T11:43:17.039Z,1.43
2019-05-28T11:45:46.633Z,1.50
2019-05-28T11:48:16.758Z,1.67
2019-05-28T11:50:46.419Z,1.40
2019-05-28T11:53:16.477Z,1.27
2019-05-28T11:55:45.571Z,1.37
2019-05-28T11:58:15.303Z,1.30
2019-05-28T12:00:44.979Z,1.70
2019-05-28T12:03:14.680Z,1.90
2019-05-28T12:05:43.723Z,1.93
2019-05-28T12:08:13.978Z,2.17
2019-05-28T12:10:44.392Z,2.50
2019-05-28T12:13:13.379Z,1.73
2019-05-28T12:15:42.306Z,1.87
2019-05-28T12:18:12.541Z,2.33
2019-05-28T12:20:49.632Z,2.40
2019-05-28T12:23:20.181Z,3.13
2019-05-28T12:25:49.872Z,2.97
2019-05-28T12:28:36.375Z,2.80
2019-05-28T12:30:57.494Z,3.37
2019-05-28T12:33:35.808Z,3.10
2019-05-28T12:36:05.938Z,3.47
2019-05-28T12:38:35.126Z,2.97
2019-05-28T12:41:04.868Z,2.40
2019-05-28T12:43:34.544Z,3.27
2019-05-28T12:46:04.319Z,3.50
2019-05-28T12:48:33.971Z,3.20
2019-05-28T12:51:03.208Z,4.37
2019-05-28T12:53:49.390Z,5.30
2019-05-28T12:56:04.150Z,5.07
2019-05-28T12:58:42.538Z,4.10
2019-05-28T13:01:07.708Z,4.07
2019-05-28T13:03:37.282Z,3.57
2019-05-28T13:06:06.419Z,2.70
2019-05-28T13:08:35.339Z,2.47
2019-05-28T13:11:07.490Z,2.30
2019-05-28T13:13:37.161Z,2.50
2019-05-28T13:16:06.751Z,2.50
2019-05-28T13:18:36.359Z,2.40
2019-05-28T13:21:06.039Z,2.33
2019-05-28T13:23:34.954Z,2.67
2019-05-28T13:26:03.898Z,3.00
2019-05-28T13:28:33.500Z,3.50
2019-05-28T13:31:03.778Z,3.87
2019-05-28T13:33:33.350Z,3.43
2019-05-28T13:36:03.231Z,3.90
2019-05-28T13:38:32.821Z,3.60
2019-05-28T13:41:11.600Z,4.47
2019-05-28T13:43:41.210Z,2.90
2019-05-28T13:46:10.766Z,2.20
2019-05-28T13:48:39.787Z,2.40
2019-05-28T13:51:09.401Z,2.20
2019-05-28T13:53:43.580Z,2.80
2019-05-28T13:56:13.165Z,2.57
2019-05-28T14:05:00.236Z,2.17
2019-05-28T14:07:30.599Z,2.00
2019-05-28T14:10:00.058Z,2.40
2019-05-28T14:12:34.638Z,2.30
2019-05-28T14:15:04.950Z,3.17
2019-05-28T14:17:34.914Z,3.20
2019-05-28T14:20:14.275Z,3.33
2019-05-28T14:22:44.567Z,3.63
2019-05-28T14:25:17.074Z,3.13
2019-05-28T14:27:46.597Z,3.27
2019-05-28T14:30:17.391Z,3.27
2019-05-28T14:32:56.045Z,4.33
2019-05-28T14:35:30.763Z,3.87
2019-05-28T14:38:00.317Z,4.10
2019-05-28T14:40:34.706Z,4.27
2019-05-28T14:43:03.998Z,4.33
2019-05-28T14:45:33.827Z,4.80
2019-05-28T14:48:20.239Z,6.10
2019-05-28T14:50:49.125Z,4.30
2019-05-28T14:53:22.661Z,4.40
2019-05-28T14:55:52.297Z,3.77
2019-05-28T14:58:21.634Z,4.00
2019-05-28T15:00:50.561Z,3.90
2019-05-28T15:03:20.567Z,3.43
2019-05-28T15:05:50.230Z,2.90
2019-05-28T15:08:19.112Z,2.60
2019-05-28T15:10:48.237Z,2.87
2019-05-28T15:13:25.670Z,2.77
2019-05-28T15:15:54.696Z,2.87
2019-05-28T15:18:24.819Z,2.87
2019-05-28T15:20:55.398Z,3.00
2019-05-28T15:23:24.680Z,2.93
2019-05-28T15:25:54.553Z,3.10
2019-05-28T15:28:25.017Z,2.90
2019-05-28T15:30:56.422Z,3.23
2019-05-28T15:33:25.326Z,2.80
2019-05-28T15:35:56.311Z,2.77
2019-05-28T15:38:25.399Z,3.40
2019-05-28T15:43:37.701Z,3.20
2019-05-28T15:46:09.978Z,3.07
2019-05-28T15:48:39.526Z,2.40
2019-05-28T15:51:19.981Z,2.50
2019-05-28T15:54:00.350Z,3.13
2019-05-28T15:56:29.297Z,3.13
2019-05-28T16:01:41.611Z,3.53
2019-05-28T16:04:12.836Z,4.43
2019-05-28T16:06:41.879Z,3.90
2019-05-28T16:09:13.377Z,3.27
2019-05-28T16:11:42.553Z,2.77
2019-05-28T16:14:12.295Z,2.27
2019-05-28T16:16:41.581Z,3.30
2019-05-28T16:19:10.637Z,3.80
2019-05-28T16:21:42.198Z,3.23
2019-05-28T16:24:11.356Z,4.07
2019-05-28T16:29:17.946Z,4.80
2019-05-28T16:31:47.641Z,3.53
2019-05-28T16:34:16.861Z,3.40
2019-05-28T16:36:51.103Z,3.50
2019-05-28T16:39:20.317Z,4.93
2019-05-28T16:41:49.578Z,5.07
2019-05-28T16:44:19.924Z,5.43
2019-05-28T16:46:48.998Z,5.53
2019-05-28T16:49:18.585Z,4.80
2019-05-28T16:51:47.558Z,5.30
2019-05-28T16:54:19.443Z,5.23
2019-05-28T16:56:47.377Z,5.43
2019-05-28T16:59:23.705Z,5.80
2019-05-28T17:01:52.535Z,5.87
2019-05-28T17:04:22.585Z,5.40
2019-05-28T17:06:52.297Z,4.80
2019-05-28T17:09:21.220Z,5.30
2019-05-28T17:11:50.205Z,4.60
2019-05-28T17:14:26.902Z,2.93
2019-05-28T17:16:52.232Z,2.87
2019-05-28T17:19:21.924Z,2.80
2019-05-28T17:21:51.917Z,2.33
2019-05-28T17:24:30.632Z,2.60
2019-05-28T17:26:59.558Z,2.73
2019-05-28T17:29:28.539Z,2.17
2019-05-28T17:31:58.124Z,2.67
2019-05-28T17:34:27.006Z,2.13
2019-05-28T17:36:56.940Z,2.33
2019-05-28T17:39:28.315Z,2.40
2019-05-28T17:42:06.614Z,2.50
2019-05-28T17:44:35.690Z,2.70
2019-05-28T17:47:05.086Z,2.30
2019-05-28T17:49:34.896Z,2.20
2019-05-28T17:52:03.990Z,2.57
2019-05-28T17:54:32.900Z,2.20
2019-05-28T17:57:02.510Z,2.20
2019-05-28T17:59:32.135Z,2.10
2019-05-28T18:02:02.004Z,1.97
2019-05-28T18:04:30.902Z,2.03
2019-05-28T18:07:00.554Z,3.00
2019-05-28T18:09:29.747Z,1.70
2019-05-28T18:11:59.589Z,1.40
2019-05-28T18:14:28.570Z,1.27
2019-05-28T18:16:57.466Z,1.40
2019-05-28T18:19:27.020Z,1.50
2019-05-28T18:21:56.003Z,1.60
2019-05-28T18:24:25.558Z,1.80
2019-05-28T18:27:01.291Z,1.40
2019-05-28T18:29:30.836Z,1.73
2019-05-28T18:32:00.639Z,1.87
2019-05-28T18:34:30.222Z,1.30
2019-05-28T18:37:01.799Z,1.47
2019-05-28T18:39:31.378Z,1.60
2019-05-28T18:42:05.443Z,1.80
2019-05-28T18:44:35.010Z,1.73
2019-05-28T18:47:13.950Z,1.60
2019-05-28T18:49:43.655Z,1.63
2019-05-28T18:52:16.846Z,1.60
2019-05-28T18:54:46.458Z,1.80
2019-05-28T18:57:16.026Z,1.70
2019-05-28T18:59:44.963Z,2.20
2019-05-28T19:02:14.007Z,2.33
2019-05-28T19:04:46.404Z,2.20
2019-05-28T19:07:16.171Z,2.40
2019-05-28T19:09:46.245Z,2.50
2019-05-28T19:12:16.174Z,3.03
2019-05-28T19:14:46.218Z,2.93
2019-05-28T19:17:15.842Z,3.13
2019-05-28T19:19:45.402Z,3.87
2019-05-28T19:22:14.703Z,3.40
2019-05-28T19:24:44.467Z,3.30
2019-05-28T19:27:13.347Z,3.93
2019-05-28T19:29:49.242Z,4.03
2019-05-28T19:32:16.984Z,4.00
2019-05-28T19:34:48.601Z,4.00
2019-05-28T19:37:17.150Z,3.57
2019-05-28T19:39:54.424Z,3.17
2019-05-28T19:42:24.710Z,3.97
2019-05-28T19:44:53.626Z,3.30
2019-05-28T19:47:23.278Z,4.10
2019-05-28T19:49:52.936Z,3.60
2019-05-28T19:52:22.723Z,3.70
2019-05-28T19:54:52.867Z,3.90
2019-05-28T19:57:31.699Z,3.63
2019-05-28T20:00:01.335Z,3.60
2019-05-28T20:02:30.879Z,3.37
2019-05-28T20:04:59.776Z,4.63
2019-05-28T20:07:34.834Z,3.67
2019-05-28T20:10:07.309Z,3.87
2019-05-28T20:12:36.285Z,4.00
2019-05-28T20:15:05.498Z,3.87
2019-05-28T20:17:35.103Z,4.23
2019-05-28T20:20:04.391Z,3.57
2019-05-28T20:23:02.582Z,3.73
2019-05-28T20:25:32.197Z,4.30
2019-05-28T20:28:09.917Z,3.60
2019-05-28T20:30:40.541Z,4.50
2019-05-28T20:33:09.733Z,4.50
2019-05-28T20:35:45.551Z,5.60
2019-05-28T20:38:15.201Z,7.30
2019-05-28T20:40:44.572Z,6.47
2019-05-28T20:43:15.025Z,6.93
2019-05-28T20:45:44.014Z,6.40
2019-05-28T20:48:12.902Z,6.60
2019-05-28T20:50:42.544Z,7.37
2019-05-28T20:53:12.697Z,5.70
2019-05-28T20:55:41.946Z,6.20
2019-05-28T20:58:13.097Z,5.60
2019-05-28T21:00:42.546Z,5.40
2019-05-28T21:03:24.284Z,5.63
2019-05-28T21:05:53.635Z,5.30
2019-05-28T21:08:23.171Z,5.00
2019-05-28T21:10:52.635Z,7.20
2019-05-28T21:13:22.515Z,5.23
2019-05-28T21:15:52.600Z,6.10
2019-05-28T21:18:22.164Z,5.20
2019-05-28T21:20:52.177Z,6.20
2019-05-28T21:23:21.471Z,5.77
2019-05-28T21:28:13.103Z,6.20
2019-05-28T21:30:43.498Z,5.67
2019-05-28T21:33:13.035Z,5.03
2019-05-28T21:35:43.501Z,5.13
2019-05-28T21:38:13.126Z,5.07
2019-05-28T21:40:42.698Z,5.37
2019-05-28T21:43:12.334Z,5.10
2019-05-28T21:45:46.695Z,5.10
2019-05-28T21:48:16.333Z,4.70
2019-05-28T21:50:45.236Z,4.50
2019-05-28T21:53:14.574Z,4.70
2019-05-28T21:55:43.560Z,4.43
2019-05-28T21:58:13.099Z,4.73
2019-05-28T22:00:48.570Z,4.87
2019-05-28T22:03:18.131Z,4.80
2019-05-28T22:05:47.007Z,4.40
2019-05-28T22:08:23.054Z,5.17
2019-05-28T22:10:52.578Z,4.80
2019-05-28T22:13:28.274Z,4.43
2019-05-28T22:16:05.822Z,4.87
2019-05-28T22:18:35.475Z,4.57
2019-05-28T22:21:23.071Z,5.10
2019-05-28T22:23:52.033Z,5.17
2019-05-28T22:26:21.938Z,4.90
2019-05-28T22:28:50.809Z,5.37
2019-05-28T22:31:24.732Z,5.33
2019-05-28T22:33:57.071Z,5.07
2019-05-28T22:36:27.059Z,5.27
2019-05-28T22:39:09.277Z,5.20
2019-05-28T22:41:40.365Z,5.77
2019-05-28T22:44:09.243Z,5.87
2019-05-28T22:46:38.588Z,6.03
2019-05-28T22:49:08.121Z,6.27
2019-05-28T22:51:42.433Z,6.60
2019-05-28T22:54:12.089Z,6.43
2019-05-28T22:56:41.614Z,6.33
2019-05-28T22:59:11.167Z,6.00
2019-05-28T23:01:40.810Z,7.63
2019-05-28T23:04:10.142Z,6.67
2019-05-28T23:06:39.706Z,7.40
2019-05-28T23:09:09.851Z,6.93
2019-05-28T23:11:39.378Z,6.90
2019-05-28T23:14:08.272Z,7.93
2019-05-28T23:16:37.929Z,7.10
2019-05-28T23:19:11.641Z,7.90
2019-05-28T23:21:40.995Z,7.63
2019-05-28T23:24:11.433Z,7.07
2019-05-28T23:26:40.996Z,7.93
2019-05-28T23:29:10.541Z,7.07
2019-05-28T23:31:46.963Z,6.80
2019-05-28T23:34:15.933Z,7.43
2019-05-28T23:36:45.665Z,7.93
2019-05-28T23:39:20.909Z,7.43
2019-05-28T23:41:50.526Z,7.67
2019-05-28T23:44:20.074Z,8.20
2019-05-28T23:46:49.630Z,7.80
2019-05-28T23:49:20.136Z,8.30
2019-05-28T23:51:49.037Z,8.23
2019-05-28T23:54:23.401Z,7.40
2019-05-28T23:57:01.022Z,8.33
2019-05-28T23:59:30.563Z,7.23
